Time;durP1;ratioP1;P1;durP2;ratioP2;P2;SDS_P1;SDS_P2;PMS_P1;PMS_P2;Temp;Humidity;BMP_temperature;BMP_pressure;BME280_temperature;BME280_humidity;BME280_pressure;Samples;Min_cycle;Max_cycle;Signal;HPM_P1;HPM_P2
2024/01/16 00:01:20;;;;;;;18.80;9.80;;;;;;;-0.86;100.00;97008.15;135611;1274;22548;-79
2024/01/16 00:04:23;;;;;;;12.30;8.70;;;;;;;-0.84;100.00;97009.90;135686;1275;25983;-81
2024/01/16 00:07:25;;;;;;;17.40;10.50;;;;;;;-0.81;100.00;97014.42;135576;1275;25395;-81
2024/01/16 00:10:28;;;;;;;19.90;10.50;;;;;;;-0.77;100.00;97021.70;135712;1275;22551;-81
2024/01/16 00:13:30;;;;;;;20.20;10.80;;;;;;;-0.73;100.00;97023.52;135641;1265;22536;-80
2024/01/16 00:16:32;;;;;;;21.90;10.80;;;;;;;-0.69;100.00;97024.99;135609;1275;22566;-80
2024/01/16 00:19:35;;;;;;;20.50;9.90;;;;;;;-0.66;100.00;97033.61;135620;1275;22544;-80
2024/01/16 00:22:37;;;;;;;20.20;8.70;;;;;;;-0.67;100.00;97035.64;135804;1275;22550;-81
2024/01/16 00:25:41;;;;;;;16.40;9.00;;;;;;;-0.67;100.00;97042.81;136321;1272;24382;-79
2024/01/16 00:28:43;;;;;;;14.70;7.80;;;;;;;-0.67;100.00;97046.92;136617;1275;22563;-79
2024/01/16 00:31:45;;;;;;;16.40;8.60;;;;;;;-0.66;100.00;97046.09;136337;1275;22491;-79
2024/01/16 00:34:48;;;;;;;12.40;7.60;;;;;;;-0.66;100.00;97051.05;136205;1275;22582;-79
2024/01/16 00:37:50;;;;;;;11.10;7.40;;;;;;;-0.71;100.00;97053.97;135692;1274;25455;-80
2024/01/16 00:40:53;;;;;;;13.70;6.70;;;;;;;-0.78;100.00;97065.23;135531;1275;22577;-82
2024/01/16 00:43:55;;;;;;;8.90;6.30;;;;;;;-0.86;100.00;97074.55;135566;1275;22611;-81
2024/01/16 00:46:58;;;;;;;10.50;6.10;;;;;;;-0.92;100.00;97076.07;135640;1275;22530;-82
2024/01/16 00:50:01;;;;;;;10.40;5.70;;;;;;;-0.97;100.00;97080.02;135608;1275;24279;-81
2024/01/16 00:53:04;;;;;;;16.70;7.90;;;;;;;-1.03;100.00;97083.10;135575;1275;22596;-81
2024/01/16 00:56:06;;;;;;;15.30;6.80;;;;;;;-1.09;100.00;97089.42;135582;1275;22653;-82
2024/01/16 00:59:09;;;;;;;8.70;5.20;;;;;;;-1.13;100.00;97094.95;135601;1275;22554;-81
2024/01/16 01:02:11;;;;;;;12.20;6.10;;;;;;;-1.17;100.00;97106.23;135581;1275;23216;-82
2024/01/16 01:05:14;;;;;;;12.10;4.90;;;;;;;-1.19;100.00;97112.17;135561;1275;25259;-81
2024/01/16 01:08:16;;;;;;;8.70;4.60;;;;;;;-1.23;100.00;97111.71;135589;1275;25414;-80
2024/01/16 01:11:19;;;;;;;10.50;4.90;;;;;;;-1.30;100.00;97116.80;135572;1275;22539;-84
2024/01/16 01:14:21;;;;;;;9.30;5.00;;;;;;;-1.37;100.00;97121.52;135632;1275;22547;-82
2024/01/16 01:17:24;;;;;;;6.90;4.10;;;;;;;-1.42;100.00;97119.48;135595;1275;22551;-81
2024/01/16 01:20:27;;;;;;;8.20;4.10;;;;;;;-1.42;100.00;97122.56;135622;1275;24352;-81
2024/01/16 01:23:29;;;;;;;12.50;4.50;;;;;;;-1.41;100.00;97121.21;135606;1275;22547;-81
2024/01/16 01:26:31;;;;;;;8.40;4.30;;;;;;;-1.42;100.00;97118.98;135601;1275;22543;-81
2024/01/16 01:29:34;;;;;;;6.80;4.10;;;;;;;-1.46;100.00;97127.06;135633;1275;22547;-79
2024/01/16 01:32:39;;;;;;;8.20;3.60;;;;;;;-1.49;100.00;97125.23;135595;1275;24236;-81
2024/01/16 01:35:41;;;;;;;9.60;4.20;;;;;;;-1.52;100.00;97125.34;135577;1275;22562;-80
2024/01/16 01:38:43;;;;;;;10.70;4.00;;;;;;;-0.60;100.00;97126.81;135562;1275;25016;-79
2024/01/16 01:41:46;;;;;;;8.40;4.00;;;;;;;0.86;100.00;97130.39;135575;1275;22551;-81
2024/01/16 01:44:48;;;;;;;8.40;3.30;;;;;;;1.57;100.00;97128.98;135480;1275;178043;-81
2024/01/16 01:47:51;;;;;;;8.50;3.40;;;;;;;2.25;100.00;97133.49;135576;1273;22662;-80
2024/01/16 01:50:53;;;;;;;6.10;3.10;;;;;;;2.35;100.00;97135.39;135521;1275;22768;-80
2024/01/16 01:53:58;;;;;;;9.90;3.70;;;;;;;2.23;100.00;97134.16;135501;1275;23232;-79
2024/01/16 01:57:01;;;;;;;;;;;;;;;2.43;100.00;97137.08;135603;1275;22551;-80
2024/01/16 02:00:04;;;;;;;7.70;2.70;;;;;;;2.91;100.00;97139.20;135586;1275;22570;-81
2024/01/16 02:03:07;;;;;;;8.90;3.30;;;;;;;3.37;100.00;97147.59;135564;1275;22547;-81
2024/01/16 02:06:09;;;;;;;7.80;3.70;;;;;;;2.47;100.00;97155.85;135572;1275;22612;-81
2024/01/16 02:09:13;;;;;;;7.10;3.50;;;;;;;1.45;100.00;97162.50;135577;1275;24314;-81
2024/01/16 02:12:15;;;;;;;7.40;3.20;;;;;;;0.73;100.00;97167.91;135559;1275;22693;-80
2024/01/16 02:15:18;;;;;;;10.20;4.20;;;;;;;0.25;100.00;97177.70;135605;1275;22709;-81
2024/01/16 02:18:20;;;;;;;6.50;3.70;;;;;;;-0.10;100.00;97174.39;135608;1275;22554;-80
2024/01/16 02:21:23;;;;;;;8.50;4.10;;;;;;;-0.33;100.00;97181.79;135693;1275;22559;-81
2024/01/16 02:24:25;;;;;;;10.10;4.00;;;;;;;-0.54;100.00;97187.33;135721;1275;22653;-81
2024/01/16 02:27:27;;;;;;;12.60;4.70;;;;;;;-0.69;100.00;97190.86;135704;1275;22588;-81
2024/01/16 02:30:30;;;;;;;10.70;4.90;;;;;;;-0.76;100.00;97191.52;135736;1274;22571;-80
2024/01/16 02:33:32;;;;;;;10.50;4.40;;;;;;;-0.81;100.00;97196.30;135734;1274;24831;-82
2024/01/16 02:36:35;;;;;;;10.60;5.00;;;;;;;-0.86;100.00;97196.14;135771;1275;22502;-82
2024/01/16 02:39:37;;;;;;;16.70;5.80;;;;;;;-0.90;100.00;97203.00;136441;1275;22565;-83
2024/01/16 02:42:40;;;;;;;17.30;8.00;;;;;;;-0.97;100.00;97207.75;136991;1275;22589;-81
2024/01/16 02:45:42;;;;;;;21.30;7.50;;;;;;;-1.06;100.00;97209.70;137057;1275;22477;-81
2024/01/16 02:48:45;;;;;;;17.40;7.00;;;;;;;-1.13;100.00;97214.41;136494;1275;25332;-82
2024/01/16 02:51:47;;;;;;;13.90;6.60;;;;;;;-1.16;100.00;97218.60;136056;1275;22841;-81
2024/01/16 02:54:50;;;;;;;14.60;6.30;;;;;;;-1.17;100.00;97219.61;135722;1275;24759;-83
2024/01/16 02:57:52;;;;;;;10.60;5.50;;;;;;;-1.20;100.00;97219.48;135630;1274;22553;-83
2024/01/16 03:00:54;;;;;;;12.50;6.30;;;;;;;-1.24;100.00;97213.55;135598;1274;22545;-83
2024/01/16 03:03:57;;;;;;;9.40;4.50;;;;;;;-1.29;100.00;97222.09;135620;1274;22559;-82
2024/01/16 03:06:59;;;;;;;10.30;4.90;;;;;;;-1.36;100.00;97225.99;135601;1274;22552;-84
2024/01/16 03:10:02;;;;;;;13.80;6.00;;;;;;;-1.41;100.00;97228.90;135628;1275;22645;-82
2024/01/16 03:13:04;;;;;;;10.70;5.60;;;;;;;-1.45;100.00;97232.33;135611;1275;22550;-84
2024/01/16 03:16:07;;;;;;;10.70;5.20;;;;;;;-1.50;100.00;97233.90;135629;1274;22554;-82
2024/01/16 03:19:09;;;;;;;12.20;5.80;;;;;;;-1.55;100.00;97231.17;135624;1274;22554;-81
2024/01/16 03:22:11;;;;;;;15.70;5.80;;;;;;;-1.59;100.00;97239.04;135636;1274;22550;-81
2024/01/16 03:25:14;;;;;;;12.90;6.40;;;;;;;-1.65;100.00;97246.86;135626;1274;22653;-81
2024/01/16 03:28:16;;;;;;;15.90;6.90;;;;;;;-1.70;100.00;97251.30;135632;1274;22552;-81
2024/01/16 03:31:21;;;;;;;14.30;6.00;;;;;;;-1.75;100.00;97253.49;135683;1275;22572;-80
2024/01/16 03:34:24;;;;;;;;;;;;;;;-1.80;100.00;97254.48;135727;1275;22671;-80
2024/01/16 03:37:26;;;;;;;14.00;5.80;;;;;;;-1.84;100.00;97254.88;135744;1274;22705;-81
2024/01/16 03:40:33;;;;;;;13.50;6.40;;;;;;;-1.56;100.00;97259.05;135727;1274;22539;-79
2024/01/16 03:43:36;;;;;;;13.30;5.90;;;;;;;2.73;100.00;97247.31;135381;1275;22658;-80
2024/01/16 03:46:38;;;;;;;8.80;5.40;;;;;;;5.65;100.00;97241.92;135784;1275;25252;-80
2024/01/16 03:49:41;;;;;;;12.50;6.30;;;;;;;5.42;100.00;97255.77;135846;1274;22578;-80
2024/01/16 03:52:43;;;;;;;11.00;6.20;;;;;;;5.17;100.00;97256.59;135910;1274;22586;-81
2024/01/16 03:55:46;;;;;;;18.10;7.80;;;;;;;5.17;100.00;97262.13;136003;1274;23063;-79
2024/01/16 03:58:51;;;;;;;12.80;6.70;;;;;;;5.37;100.00;97266.26;135411;1275;22584;-80
2024/01/16 04:01:53;;;;;;;11.30;6.50;;;;;;;5.56;100.00;97268.80;135798;1275;22524;-81
2024/01/16 04:04:56;;;;;;;10.30;6.70;;;;;;;5.66;100.00;97274.73;135749;1274;23164;-81
2024/01/16 04:08:01;;;;;;;12.90;6.30;;;;;;;5.75;100.00;97270.98;135703;1274;22549;-81
2024/01/16 04:11:03;;;;;;;;;;;;;;;7.01;100.00;97270.07;135684;1274;22532;-82
2024/01/16 04:14:06;;;;;;;9.30;5.80;;;;;;;5.71;100.00;97277.83;135801;1275;25254;-82
2024/01/16 04:17:08;;;;;;;13.10;6.50;;;;;;;3.84;100.00;97282.35;135769;1275;23457;-83
2024/01/16 04:20:11;;;;;;;22.10;7.10;;;;;;;3.24;100.00;97274.94;135711;1274;22553;-79
2024/01/16 04:23:17;;;;;;;14.50;8.10;;;;;;;5.91;100.00;97275.19;135544;1274;22564;-81
2024/01/16 04:26:19;;;;;;;14.50;7.60;;;;;;;9.52;100.00;97271.11;135641;1275;22566;-82
2024/01/16 04:29:22;;;;;;;14.70;7.70;;;;;;;12.29;100.00;97267.96;135834;1275;24261;-81
2024/01/16 04:32:24;;;;;;;12.90;7.20;;;;;;;14.35;100.00;97268.23;135724;1275;22556;-82
2024/01/16 04:35:26;;;;;;;13.70;7.20;;;;;;;15.23;100.00;97273.36;135889;1267;23139;-80
2024/01/16 04:38:29;;;;;;;10.00;6.30;;;;;;;15.45;76.36;97281.59;135428;1275;24852;-79
2024/01/16 04:41:31;;;;;;;14.90;6.50;;;;;;;15.14;62.25;97277.84;135491;1275;22669;-78
2024/01/16 04:44:34;;;;;;;11.60;5.80;;;;;;;15.31;57.05;97281.51;135459;1275;22586;-78
2024/01/16 04:47:36;;;;;;;16.80;9.00;;;;;;;15.13;51.14;97276.26;135423;1275;22546;-82
2024/01/16 04:50:39;;;;;;;16.80;10.00;;;;;;;11.63;42.21;97283.07;135845;1273;22560;-84
2024/01/16 04:53:41;;;;;;;10.00;6.30;;;;;;;7.72;44.59;97296.57;135921;1275;22580;-82
2024/01/16 04:56:44;;;;;;;33.50;16.00;;;;;;;4.89;48.62;97311.62;136598;1275;22594;-81
2024/01/16 04:59:46;;;;;;;25.80;11.90;;;;;;;2.98;52.25;97319.36;137065;1275;22616;-81
2024/01/16 05:02:49;;;;;;;16.70;8.50;;;;;;;1.74;55.37;97328.23;136961;1275;22596;-82
2024/01/16 05:05:51;;;;;;;17.00;6.80;;;;;;;0.85;58.21;97335.36;137092;1275;22586;-81
2024/01/16 05:08:54;;;;;;;14.20;6.70;;;;;;;0.20;60.32;97336.66;136728;1275;22566;-82
2024/01/16 05:11:56;;;;;;;22.40;9.40;;;;;;;-0.25;62.43;97340.65;136550;1275;25077;-82
2024/01/16 05:14:59;;;;;;;21.60;8.10;;;;;;;-0.32;73.77;97342.63;136409;1275;22628;-81
2024/01/16 05:18:03;;;;;;;29.70;10.10;;;;;;;1.39;81.49;97340.25;136567;1275;22587;-80
2024/01/16 05:21:06;;;;;;;22.90;9.20;;;;;;;3.04;79.59;97342.15;134907;1275;23507;-80
2024/01/16 05:24:09;;;;;;;23.60;9.70;;;;;;;4.26;75.62;97342.48;136719;1275;22525;-80
2024/01/16 05:27:11;;;;;;;22.80;8.50;;;;;;;5.11;72.07;97345.17;136641;1275;22646;-80
2024/01/16 05:30:14;;;;;;;17.50;7.30;;;;;;;5.66;70.94;97346.17;136492;1275;22578;-80
2024/01/16 05:33:16;;;;;;;13.70;6.50;;;;;;;6.02;67.83;97356.11;136352;1275;22566;-82
2024/01/16 05:36:19;;;;;;;12.80;5.90;;;;;;;6.10;66.30;97362.56;136523;1275;23330;-82
2024/01/16 05:39:21;;;;;;;11.80;5.60;;;;;;;6.26;66.36;97367.50;136465;1275;22563;-81
2024/01/16 05:42:24;;;;;;;12.00;5.20;;;;;;;6.63;67.06;97365.94;136385;1267;23290;-80
2024/01/16 05:45:26;;;;;;;15.80;7.20;;;;;;;6.67;65.73;97379.61;136328;1275;22586;-83
2024/01/16 05:48:29;;;;;;;21.10;8.70;;;;;;;6.80;65.33;97386.56;136201;1273;22630;-82
2024/01/16 05:51:31;;;;;;;29.60;11.70;;;;;;;7.20;72.47;97387.36;136123;1275;22543;-81
2024/01/16 05:54:34;;;;;;;34.20;14.80;;;;;;;9.69;77.74;97388.57;136546;1275;22591;-78
2024/01/16 05:57:37;;;;;;;33.60;15.30;;;;;;;12.08;74.61;97393.58;134899;1275;22680;-78
2024/01/16 06:00:40;;;;;;;50.80;17.60;;;;;;;13.68;69.96;97399.52;134841;1259;22570;-77
2024/01/16 06:03:45;;;;;;;36.20;17.30;;;;;;;14.60;65.74;97405.83;134787;1275;22556;-78
2024/01/16 06:06:47;;;;;;;37.90;17.40;;;;;;;15.09;64.30;97416.73;134749;1274;23237;-80
2024/01/16 06:09:53;;;;;;;26.30;13.10;;;;;;;15.33;59.08;97427.77;134823;1274;22526;-81
2024/01/16 06:12:55;;;;;;;28.90;14.10;;;;;;;12.68;43.31;97439.58;136665;1274;26072;-80
2024/01/16 06:15:58;;;;;;;20.60;11.10;;;;;;;8.50;43.49;97457.36;134762;1274;22638;-80
2024/01/16 06:19:00;;;;;;;20.70;10.80;;;;;;;5.52;46.92;97473.52;134728;1274;22555;-82
2024/01/16 06:22:03;;;;;;;18.60;10.90;;;;;;;3.35;50.54;97486.23;136721;1274;22585;-81
2024/01/16 06:25:06;;;;;;;15.50;9.40;;;;;;;1.84;53.95;97496.72;136588;1274;22568;-82
2024/01/16 06:28:09;;;;;;;24.60;11.10;;;;;;;0.89;56.22;97505.00;136587;1274;22553;-82
2024/01/16 06:31:11;;;;;;;21.20;10.50;;;;;;;0.25;59.33;97508.40;136473;1274;23017;-80
2024/01/16 06:34:14;;;;;;;18.30;9.10;;;;;;;-0.30;61.60;97515.17;134997;1274;22641;-82
2024/01/16 06:37:16;;;;;;;17.20;8.00;;;;;;;-0.74;62.83;97516.45;136438;1274;22601;-82
2024/01/16 06:40:19;;;;;;;17.50;8.00;;;;;;;-1.06;64.05;97525.01;136433;1272;22598;-82
2024/01/16 06:43:21;;;;;;;14.80;7.50;;;;;;;-1.32;65.74;97529.35;136427;1274;22555;-82
2024/01/16 06:46:25;;;;;;;14.20;6.80;;;;;;;-1.55;67.06;97532.11;136584;1274;22580;-78
2024/01/16 06:49:28;;;;;;;19.00;9.00;;;;;;;0.19;97.30;97527.65;134732;1274;23041;-81
2024/01/16 06:52:30;;;;;;;18.10;8.30;;;;;;;5.48;100.00;97507.48;136765;1274;22623;-78
2024/01/16 06:55:33;;;;;;;16.10;8.60;;;;;;;8.66;100.00;97503.59;134811;1274;22598;-78
2024/01/16 06:58:35;;;;;;;13.30;7.80;;;;;;;-100.39;19.20;19502.66;131779;1274;1002817;-78
2024/01/16 07:01:38;;;;;;;15.00;7.70;;;;;;;-128.00;-1.00;-1.00;131130;1275;1004879;-78
2024/01/16 07:04:41;;;;;;;13.60;7.10;;;;;;;-128.00;-1.00;-1.00;131118;1275;1005158;-78
2024/01/16 07:07:43;;;;;;;20.10;10.00;;;;;;;-128.00;-1.00;-1.00;131227;1275;1004635;-77
2024/01/16 07:10:46;;;;;;;14.70;9.50;;;;;;;-128.00;-1.00;-1.00;132442;1275;1004281;-79
2024/01/16 07:13:48;;;;;;;21.00;12.40;;;;;;;-128.00;-1.00;-1.00;133247;1274;1004449;-79
2024/01/16 07:16:50;;;;;;;16.40;10.40;;;;;;;-128.00;-1.00;-1.00;132638;1275;1003524;-79
2024/01/16 07:19:53;;;;;;;19.80;10.70;;;;;;;-128.00;-1.00;-1.00;133222;1275;1005095;-79
2024/01/16 07:22:55;;;;;;;24.00;13.80;;;;;;;-128.00;-1.00;-1.00;133237;1253;1004987;-79
2024/01/16 07:25:58;;;;;;;21.70;12.40;;;;;;;-128.00;-1.00;-1.00;133313;1275;1004150;-79
2024/01/16 07:29:00;;;;;;;26.80;15.70;;;;;;;-128.00;-1.00;-1.00;133468;1274;1004756;-79
2024/01/16 07:32:03;;;;;;;45.20;22.10;;;;;;;-128.00;-1.00;-1.00;131459;1274;1003657;-79
2024/01/16 07:35:05;;;;;;;40.00;20.30;;;;;;;-128.00;-1.00;-1.00;131335;1275;1005799;-77
2024/01/16 07:38:08;;;;;;;29.00;16.60;;;;;;;-128.00;-1.00;-1.00;131340;1274;1004593;-77
2024/01/16 07:41:10;;;;;;;24.00;14.50;;;;;;;-128.00;-1.00;-1.00;131152;1274;1005295;-77
2024/01/16 07:44:13;;;;;;;24.60;15.20;;;;;;;-128.00;-1.00;-1.00;131165;1274;1004271;-77
2024/01/16 07:47:15;;;;;;;23.30;13.80;;;;;;;-128.00;-1.00;-1.00;131164;1274;1005021;-78
2024/01/16 07:50:18;;;;;;;16.80;11.20;;;;;;;-128.00;-1.00;-1.00;131224;1274;1003474;-77
2024/01/16 07:53:20;;;;;;;25.30;14.40;;;;;;;-128.00;-1.00;-1.00;131399;1274;1004050;-79
2024/01/16 07:56:23;;;;;;;22.00;12.50;;;;;;;-128.00;-1.00;-1.00;131250;1275;1004700;-79
2024/01/16 07:59:26;;;;;;;28.30;15.30;;;;;;;-128.00;-1.00;-1.00;131240;1274;1004934;-79
2024/01/16 08:02:29;;;;;;;29.80;16.40;;;;;;;-128.00;-1.00;-1.00;131173;1274;1004832;-78
2024/01/16 08:05:31;;;;;;;23.40;13.10;;;;;;;-128.00;-1.00;-1.00;131729;1274;1004380;-79
2024/01/16 08:08:34;;;;;;;28.40;13.30;;;;;;;-128.00;-1.00;-1.00;133231;1274;1007815;-80
2024/01/16 08:11:37;;;;;;;22.80;11.80;;;;;;;-128.00;-1.00;-1.00;133159;1274;1003577;-81
2024/01/16 08:14:39;;;;;;;23.30;12.30;;;;;;;-128.00;-1.00;-1.00;132820;1274;1005007;-80
2024/01/16 08:17:42;;;;;;;22.10;10.70;;;;;;;-128.00;-1.00;-1.00;132655;1274;1004210;-80
2024/01/16 08:20:44;;;;;;;25.20;13.40;;;;;;;-128.00;-1.00;-1.00;132744;1274;1004730;-81
2024/01/16 08:23:47;;;;;;;25.60;12.50;;;;;;;-128.00;-1.00;-1.00;132731;1274;1004754;-81
2024/01/16 08:26:52;;;;;;;19.80;11.20;;;;;;;-128.00;-1.00;-1.00;132783;1274;1003995;-81
2024/01/16 08:29:55;;;;;;;23.60;13.90;;;;;;;-128.00;-1.00;-1.00;133006;1274;1003926;-81
2024/01/16 08:32:57;;;;;;;19.80;10.60;;;;;;;-128.00;-1.00;-1.00;133345;1275;1004421;-80
2024/01/16 08:36:00;;;;;;;27.10;12.50;;;;;;;-128.00;-1.00;-1.00;133093;1275;1005113;-80
2024/01/16 08:39:03;;;;;;;23.20;12.20;;;;;;;-128.00;-1.00;-1.00;133076;1275;1004161;-79
2024/01/16 08:42:05;;;;;;;27.50;12.40;;;;;;;-128.00;-1.00;-1.00;131065;1254;1005271;-80
2024/01/16 08:45:08;;;;;;;21.20;10.50;;;;;;;-128.00;-1.00;-1.00;133153;1274;1003650;-80
2024/01/16 08:48:12;;;;;;;29.90;13.50;;;;;;;-128.00;-1.00;-1.00;132605;1274;1004784;-80
2024/01/16 08:51:25;;;;;;;23.40;10.90;;;;;;;-128.00;-1.00;-1.00;132715;1275;1004600;-79
2024/01/16 08:54:28;;;;;;;24.10;11.00;;;;;;;-128.00;-1.00;-1.00;132698;1275;1004366;-80
2024/01/16 08:57:30;;;;;;;24.50;11.10;;;;;;;-128.00;-1.00;-1.00;132772;1275;1003836;-80
2024/01/16 09:00:33;;;;;;;19.30;9.50;;;;;;;-128.00;-1.00;-1.00;132832;1274;1005258;-79
2024/01/16 09:03:36;;;;;;;24.20;10.80;;;;;;;-128.00;-1.00;-1.00;133001;1275;1003376;-80
2024/01/16 09:06:38;;;;;;;19.10;10.50;;;;;;;-128.00;-1.00;-1.00;132853;1274;1004625;-80
2024/01/16 09:09:42;;;;;;;14.80;8.10;;;;;;;-128.00;-1.00;-1.00;132548;1275;1004357;-80
2024/01/16 09:12:44;;;;;;;22.40;11.00;;;;;;;-128.00;-1.00;-1.00;131411;1275;1004946;-79
2024/01/16 09:15:47;;;;;;;16.10;9.20;;;;;;;-128.00;-1.00;-1.00;131135;1275;1004113;-77
2024/01/16 09:18:49;;;;;;;18.60;8.40;;;;;;;-128.00;-1.00;-1.00;131115;1275;1005351;-80
2024/01/16 09:21:52;;;;;;;21.20;9.70;;;;;;;-128.00;-1.00;-1.00;132984;1275;1003816;-80
2024/01/16 09:24:54;;;;;;;19.60;10.40;;;;;;;-128.00;-1.00;-1.00;132924;1275;1003775;-81
2024/01/16 09:27:57;;;;;;;26.80;11.80;;;;;;;-128.00;-1.00;-1.00;132594;1275;1004747;-80
2024/01/16 09:30:59;;;;;;;18.40;9.40;;;;;;;-128.00;-1.00;-1.00;132541;1275;1004557;-81
2024/01/16 09:34:01;;;;;;;14.90;8.00;;;;;;;-128.00;-1.00;-1.00;132442;1275;1004203;-80
2024/01/16 09:37:04;;;;;;;23.70;11.50;;;;;;;-128.00;-1.00;-1.00;131351;1275;1004405;-81
2024/01/16 09:40:07;;;;;;;41.40;18.70;;;;;;;-128.00;-1.00;-1.00;132761;1275;1004452;-80
2024/01/16 09:43:10;;;;;;;16.30;7.60;;;;;;;-128.00;-1.00;-1.00;132980;1275;1004363;-79
2024/01/16 09:46:13;;;;;;;18.20;9.60;;;;;;;-128.00;-1.00;-1.00;130924;1275;1004936;-75
2024/01/16 09:49:15;;;;;;;42.10;18.70;;;;;;;-128.00;-1.00;-1.00;130891;1275;1004629;-75
2024/01/16 09:52:17;;;;;;;18.60;9.20;;;;;;;-128.00;-1.00;-1.00;130904;1275;1003624;-75
2024/01/16 09:55:21;;;;;;;10.50;6.90;;;;;;;-128.00;-1.00;-1.00;131042;1275;1005458;-75
2024/01/16 09:58:24;;;;;;;17.40;8.10;;;;;;;-128.00;-1.00;-1.00;131067;1275;1004419;-75
2024/01/16 10:01:26;;;;;;;11.00;5.90;;;;;;;-128.00;-1.00;-1.00;131052;1275;1004214;-76
2024/01/16 10:04:28;;;;;;;8.80;4.00;;;;;;;-128.00;-1.00;-1.00;131139;1275;1004429;-76
2024/01/16 10:07:31;;;;;;;9.30;5.20;;;;;;;-128.00;-1.00;-1.00;131041;1275;1004603;-76
2024/01/16 10:10:33;;;;;;;20.50;11.20;;;;;;;-128.00;-1.00;-1.00;131161;1275;1003888;-77
2024/01/16 10:13:36;;;;;;;9.20;5.40;;;;;;;-128.00;-1.00;-1.00;131237;1275;1004204;-76
2024/01/16 10:16:38;;;;;;;12.00;6.20;;;;;;;-128.00;-1.00;-1.00;131670;1275;1004096;-76
2024/01/16 10:19:41;;;;;;;11.20;7.00;;;;;;;-128.00;-1.00;-1.00;132251;1275;1003651;-76
2024/01/16 10:22:45;;;;;;;11.30;6.40;;;;;;;-128.00;-1.00;-1.00;132289;1275;1004172;-78
2024/01/16 10:25:48;;;;;;;9.60;6.00;;;;;;;-128.00;-1.00;-1.00;132628;1275;1004006;-78
2024/01/16 10:28:50;;;;;;;12.50;8.40;;;;;;;-128.00;-1.00;-1.00;131405;1275;1004464;-80
2024/01/16 10:31:53;;;;;;;10.90;6.80;;;;;;;-128.00;-1.00;-1.00;132429;1275;1005316;-80
2024/01/16 10:34:55;;;;;;;12.80;6.80;;;;;;;-128.00;-1.00;-1.00;132442;1275;1004174;-81
2024/01/16 10:37:58;;;;;;;16.80;8.30;;;;;;;-128.00;-1.00;-1.00;132763;1275;1003756;-82
2024/01/16 10:41:00;;;;;;;12.70;6.00;;;;;;;-128.00;-1.00;-1.00;132335;1275;1004210;-81
2024/01/16 10:44:03;;;;;;;10.90;5.90;;;;;;;-128.00;-1.00;-1.00;132305;1275;1004235;-80
2024/01/16 10:47:06;;;;;;;11.80;6.10;;;;;;;-128.00;-1.00;-1.00;132345;1275;1004969;-81
2024/01/16 10:50:09;;;;;;;10.40;6.00;;;;;;;-128.00;-1.00;-1.00;132346;1275;1004081;-80
2024/01/16 10:53:11;;;;;;;10.60;5.00;;;;;;;-128.00;-1.00;-1.00;132493;1274;1005063;-78
2024/01/16 10:56:15;;;;;;;10.20;5.40;;;;;;;-128.00;-1.00;-1.00;131253;1274;1005207;-78
2024/01/16 10:59:17;;;;;;;10.80;5.00;;;;;;;-128.00;-1.00;-1.00;131103;1274;1004488;-77
2024/01/16 11:02:20;;;;;;;13.90;6.20;;;;;;;-128.00;-1.00;-1.00;131266;1274;1004224;-79
2024/01/16 11:05:22;;;;;;;16.10;7.20;;;;;;;-128.00;-1.00;-1.00;131055;1274;1004641;-80
2024/01/16 11:08:30;;;;;;;13.20;6.80;;;;;;;-128.00;-1.00;-1.00;131091;1274;1003950;-79
2024/01/16 11:11:34;;;;;;;12.70;7.20;;;;;;;-128.00;-1.00;-1.00;131255;1274;1004834;-78
2024/01/16 11:14:36;;;;;;;10.40;5.80;;;;;;;-128.00;-1.00;-1.00;131360;1274;1004117;-79
2024/01/16 11:17:39;;;;;;;13.80;6.70;;;;;;;-128.00;-1.00;-1.00;131407;1274;1004677;-80
2024/01/16 11:20:42;;;;;;;12.40;6.80;;;;;;;-128.00;-1.00;-1.00;132696;1274;1005116;-81
2024/01/16 11:23:45;;;;;;;20.20;9.10;;;;;;;-128.00;-1.00;-1.00;132850;1274;1004431;-78
2024/01/16 11:26:47;;;;;;;25.00;10.90;;;;;;;-128.00;-1.00;-1.00;131288;1275;1003660;-79
2024/01/16 11:29:50;;;;;;;21.90;10.30;;;;;;;-128.00;-1.00;-1.00;131236;1275;1003765;-79
2024/01/16 11:32:52;;;;;;;29.70;15.20;;;;;;;-128.00;-1.00;-1.00;131235;1275;1003654;-79
2024/01/16 11:35:55;;;;;;;31.60;16.40;;;;;;;-128.00;-1.00;-1.00;131134;1275;1004616;-79
2024/01/16 11:38:57;;;;;;;21.90;10.80;;;;;;;-128.00;-1.00;-1.00;131282;1274;1004521;-79
2024/01/16 11:42:02;;;;;;;30.80;13.50;;;;;;;-128.00;-1.00;-1.00;131295;1274;1004291;-81
2024/01/16 11:45:05;;;;;;;;;;;;;;;-128.00;-1.00;-1.00;132809;1275;1003886;-82
2024/01/16 11:48:10;;;;;;;21.40;9.30;;;;;;;-128.00;-1.00;-1.00;132819;1275;1003907;-79
2024/01/16 11:51:13;;;;;;;30.00;9.50;;;;;;;-128.00;-1.00;-1.00;131166;1275;1004396;-80
2024/01/16 11:54:15;;;;;;;16.40;7.30;;;;;;;-128.00;-1.00;-1.00;131304;1275;1005256;-79
2024/01/16 11:57:17;;;;;;;19.90;8.80;;;;;;;-128.00;-1.00;-1.00;131115;1267;1005508;-78
2024/01/16 12:00:21;;;;;;;46.20;16.60;;;;;;;-128.00;-1.00;-1.00;131089;1275;1003855;-79
2024/01/16 12:03:23;;;;;;;21.60;9.40;;;;;;;-128.00;-1.00;-1.00;131377;1274;1003812;-80
2024/01/16 12:06:26;;;;;;;16.80;7.50;;;;;;;-128.00;-1.00;-1.00;131264;1275;1003809;-80
2024/01/16 12:09:28;;;;;;;18.30;8.70;;;;;;;-128.00;-1.00;-1.00;131120;1274;1004686;-79
2024/01/16 12:12:31;;;;;;;18.50;8.20;;;;;;;-128.00;-1.00;-1.00;131204;1275;1005118;-78
2024/01/16 12:15:34;;;;;;;17.70;8.50;;;;;;;-128.00;-1.00;-1.00;131363;1275;1004293;-80
2024/01/16 12:18:36;;;;;;;21.90;9.60;;;;;;;-128.00;-1.00;-1.00;131341;1275;1004285;-79
2024/01/16 12:21:39;;;;;;;14.50;7.40;;;;;;;-128.00;-1.00;-1.00;131310;1275;1003942;-79
2024/01/16 12:24:41;;;;;;;11.90;6.20;;;;;;;-128.00;-1.00;-1.00;131397;1275;1005033;-78
2024/01/16 12:27:44;;;;;;;15.70;7.90;;;;;;;-128.00;-1.00;-1.00;132728;1259;1004478;-80
2024/01/16 12:30:46;;;;;;;22.00;9.60;;;;;;;-128.00;-1.00;-1.00;133392;1275;1004247;-79
2024/01/16 12:33:48;;;;;;;14.60;7.00;;;;;;;-128.00;-1.00;-1.00;133091;1275;1004185;-79
2024/01/16 12:36:51;;;;;;;14.50;7.30;;;;;;;-128.00;-1.00;-1.00;133099;1274;1004326;-79
2024/01/16 12:39:53;;;;;;;19.90;8.70;;;;;;;-128.00;-1.00;-1.00;131749;1275;1004110;-80
2024/01/16 12:42:56;;;;;;;13.00;6.50;;;;;;;-128.00;-1.00;-1.00;131085;1275;1004436;-77
2024/01/16 12:45:58;;;;;;;14.40;8.40;;;;;;;-128.00;-1.00;-1.00;131050;1275;1004567;-81
2024/01/16 12:49:01;;;;;;;10.90;6.80;;;;;;;-128.00;-1.00;-1.00;133026;1275;1005025;-78
2024/01/16 12:52:03;;;;;;;8.10;5.10;;;;;;;-128.00;-1.00;-1.00;131154;1274;1005257;-78
2024/01/16 12:55:07;;;;;;;13.10;6.50;;;;;;;-128.00;-1.00;-1.00;131375;1275;1004920;-81
2024/01/16 12:58:10;;;;;;;11.60;6.30;;;;;;;-128.00;-1.00;-1.00;132333;1275;1003781;-81
2024/01/16 13:01:14;;;;;;;10.20;5.90;;;;;;;-128.00;-1.00;-1.00;132526;1275;1005563;-81
2024/01/16 13:04:16;;;;;;;11.80;6.30;;;;;;;-128.00;-1.00;-1.00;132670;1275;1004409;-80
2024/01/16 13:07:19;;;;;;;21.30;10.10;;;;;;;-128.00;-1.00;-1.00;132864;1275;1005402;-78
2024/01/16 13:10:22;;;;;;;19.10;9.20;;;;;;;-128.00;-1.00;-1.00;130764;1274;1004211;-80
2024/01/16 13:13:24;;;;;;;16.30;8.50;;;;;;;-128.00;-1.00;-1.00;133302;1275;1004157;-80
2024/01/16 13:16:27;;;;;;;19.50;10.10;;;;;;;-128.00;-1.00;-1.00;133242;1275;1004216;-81
2024/01/16 13:19:33;;;;;;;20.10;9.10;;;;;;;-128.00;-1.00;-1.00;133241;1274;1004133;-78
2024/01/16 13:22:35;;;;;;;19.80;9.20;;;;;;;-128.00;-1.00;-1.00;130774;1275;1004732;-81
2024/01/16 13:25:38;;;;;;;24.90;11.60;;;;;;;-128.00;-1.00;-1.00;133206;1274;1004118;-80
2024/01/16 13:28:41;;;;;;;27.70;11.60;;;;;;;-128.00;-1.00;-1.00;133313;1275;1004183;-79
2024/01/16 13:31:44;;;;;;;20.70;9.50;;;;;;;-128.00;-1.00;-1.00;133158;1259;1004269;-81
2024/01/16 13:34:49;;;;;;;15.40;9.50;;;;;;;-128.00;-1.00;-1.00;133145;1275;1003744;-80
2024/01/16 13:37:51;;;;;;;21.80;10.30;;;;;;;-128.00;-1.00;-1.00;133198;1275;1004753;-78
2024/01/16 13:40:54;;;;;;;16.10;7.60;;;;;;;-128.00;-1.00;-1.00;130930;1275;1004228;-80
2024/01/16 13:43:57;;;;;;;12.60;5.90;;;;;;;-128.00;-1.00;-1.00;130757;1269;1003559;-82
2024/01/16 13:46:59;;;;;;;13.20;6.50;;;;;;;-128.00;-1.00;-1.00;133216;1275;1004152;-82
2024/01/16 13:50:03;;;;;;;14.40;6.50;;;;;;;-128.00;-1.00;-1.00;133063;1275;1003418;-81
2024/01/16 13:53:07;;;;;;;10.60;6.10;;;;;;;-128.00;-1.00;-1.00;132899;1275;1004147;-81